Time;durP1;ratioP1;P1;durP2;ratioP2;P2;SDS_P1;SDS_P2;PMS_P1;PMS_P2;Temp;Humidity;BMP_temperature;BMP_pressure;BME280_temperature;BME280_humidity;BME280_pressure;Samples;Min_cycle;Max_cycle;Signal;HPM_P1;HPM_P2
2021/01/11 08:13:05;;;;;;;;;;;-4.50;99.90;;;;;;5406232;22;19937;-85
2021/01/11 08:42:19;;;;;;;;;;;-4.40;99.90;;;;;;5065850;22;20404;-89
2021/01/11 08:44:46;;;;;;;;;;;-4.30;99.90;;;;;;5023841;28;20267;-89
2021/01/11 08:47:15;;;;;;;;;;;-4.30;99.90;;;;;;5033791;28;20047;-90
2021/01/11 08:50:01;;;;;;;;;;;-4.20;99.90;;;;;;5031687;28;20344;-88
2021/01/11 08:52:29;;;;;;;;;;;-4.20;99.90;;;;;;5026599;28;19940;-89
2021/01/11 08:54:55;;;;;;;;;;;-4.20;99.90;;;;;;5031770;28;20050;-90
2021/01/11 08:57:26;;;;;;;;;;;-4.20;99.90;;;;;;5019793;28;19913;-88
2021/01/11 09:02:54;;;;;;;;;;;-4.20;99.90;;;;;;5421747;22;20382;31
2021/01/11 09:05:23;;;;;;;;;;;-4.20;99.90;;;;;;5222765;22;19964;-79
2021/01/11 09:11:03;;;;;;;;;;;-4.10;99.90;;;;;;5113735;22;19928;31
2021/01/11 09:13:28;;;;;;;;;;;-4.20;99.90;;;;;;4989235;28;20296;-87
2021/01/11 09:15:54;;;;;;;;;;;-4.20;99.90;;;;;;4974888;28;19918;-86
2021/01/11 09:18:23;;;;;;;;;;;-4.10;99.90;;;;;;4972713;28;19941;-87
2021/01/11 09:20:51;;;;;;;;;;;-4.10;99.90;;;;;;4971888;28;20283;-87
2021/01/11 09:23:22;;;;;;;;;;;-4.10;99.90;;;;;;5001288;28;19914;-88
2021/01/11 09:25:49;;;;;;;;;;;-4.10;99.90;;;;;;5241119;22;19923;-79
2021/01/11 09:28:18;;;;;;;;;;;-4.00;99.90;;;;;;5294838;23;19929;-89
2021/01/11 09:33:19;;;;;;;;;;;-3.90;99.90;;;;;;5319046;22;19962;-90
2021/01/11 09:35:46;;;;;;;;;;;-3.90;99.90;;;;;;5170158;22;19923;-88
2021/01/11 09:38:15;;;;;;;;;;;-4.00;99.90;;;;;;5050370;28;20272;-87
2021/01/11 09:40:44;;;;;;;;;;;-3.90;99.90;;;;;;5162381;22;19930;-88
2021/01/11 09:43:14;;;;;;;;;;;-3.80;99.90;;;;;;5151917;22;19929;-82
2021/01/11 09:45:41;;;;;;;;;;;-3.70;99.90;;;;;;5025857;28;19917;-80
2021/01/11 09:48:12;;;;;;;;;;;-3.70;99.90;;;;;;5177092;22;19919;-89
2021/01/11 10:29:05;;;;;;;;;;;-3.10;99.90;;;;;;5052130;22;19935;-89
2021/01/11 10:31:34;;;;;;;;;;;-3.10;99.90;;;;;;5026133;28;19918;-88
2021/01/11 10:34:02;;;;;;;;;;;-3.10;99.90;;;;;;5023819;28;20504;-87
2021/01/11 10:36:35;;;;;;;;;;;-3.10;99.90;;;;;;5321065;22;20001;-88
2021/01/11 10:39:00;;;;;;;;;;;-3.00;99.90;;;;;;5060411;28;19927;-88
2021/01/11 10:41:28;;;;;;;;;;;-2.90;99.90;;;;;;5161157;22;19938;-79
2021/01/11 10:46:36;;;;;;;;;;;-2.90;99.90;;;;;;5258864;22;20112;31
2021/01/11 10:49:29;;;;;;;;;;;-2.90;99.90;;;;;;5597408;22;19936;31
2021/01/11 15:22:33;;;;;;;;;;;-0.50;99.90;;;;;;6231435;22;19923;31
2021/01/11 17:07:45;;;;;;;;;;;-0.80;99.90;;;;;;5073637;28;19925;-87
2021/01/11 17:10:11;;;;;;;;;;;-0.70;99.90;;;;;;5066877;28;19924;-87
2021/01/11 17:12:41;;;;;;;;;;;-0.80;99.90;;;;;;5082602;28;19916;-88
2021/01/11 17:15:07;;;;;;;;;;;-0.70;99.90;;;;;;5246737;22;19929;-81
2021/01/11 17:17:39;;;;;;;;;;;-0.80;99.90;;;;;;5157121;23;19990;-89
2021/01/11 17:20:08;;;;;;;;;;;-0.80;99.90;;;;;;5044057;28;20322;-90
2021/01/11 17:22:35;;;;;;;;;;;-0.80;99.90;;;;;;5053942;28;20317;-89
2021/01/11 17:25:02;;;;;;;;;;;-0.80;99.90;;;;;;5051978;28;19912;-90
2021/01/11 17:27:30;;;;;;;;;;;-0.80;99.90;;;;;;5053664;28;19912;-89
2021/01/11 17:29:56;;;;;;;;;;;-0.80;99.90;;;;;;5170972;22;19928;-86
2021/01/11 17:34:54;;;;;;;;;;;-0.80;99.90;;;;;;5049190;28;19929;-90
2021/01/11 17:37:19;;;;;;;;;;;-0.70;99.90;;;;;;5033955;28;19916;-89
2021/01/11 17:39:45;;;;;;;;;;;-0.70;99.90;;;;;;5033054;28;19913;-89
2021/01/11 17:42:12;;;;;;;;;;;-0.70;99.90;;;;;;5033344;28;19913;-88
2021/01/11 17:44:38;;;;;;;;;;;-0.80;99.90;;;;;;5033280;28;20371;-89
2021/01/11 17:47:04;;;;;;;;;;;-0.80;99.90;;;;;;5030225;28;19994;-89
2021/01/11 17:49:32;;;;;;;;;;;-0.80;99.90;;;;;;5032968;28;19913;-90
2021/01/11 17:54:38;;;;;;;;;;;-0.80;99.90;;;;;;5570781;22;19936;-89
2021/01/11 17:57:04;;;;;;;;;;;-0.80;99.90;;;;;;5455434;22;19925;-91
2021/01/11 18:02:05;;;;;;;;;;;-0.80;99.90;;;;;;5387714;22;19982;-86
2021/01/11 18:04:36;;;;;;;;;;;-0.80;99.90;;;;;;5463727;22;20040;-89
2021/01/11 18:29:10;;;;;;;;;;;-0.90;99.90;;;;;;5081367;23;19936;-91
2021/01/11 18:31:36;;;;;;;;;;;-0.90;99.90;;;;;;5060103;28;19924;-90
2021/01/11 18:34:02;;;;;;;;;;;-0.80;99.90;;;;;;5062204;28;19927;-89
2021/01/11 18:36:27;;;;;;;;;;;-0.80;99.90;;;;;;5068840;28;19916;-91
2021/01/11 18:38:53;;;;;;;;;;;-0.90;99.90;;;;;;5069099;28;19927;-89
2021/01/11 18:41:19;;;;;;;;;;;-0.90;99.90;;;;;;5068873;28;20264;-89
2021/01/11 18:43:47;;;;;;;;;;;-0.90;99.90;;;;;;5068928;28;20428;-89
2021/01/11 18:46:16;;;;;;;;;;;-0.90;99.90;;;;;;5178040;22;19994;-78
2021/01/11 18:48:49;;;;;;;;;;;-0.90;99.90;;;;;;5035102;28;20247;-78
2021/01/11 18:53:52;;;;;;;;;;;-1.00;99.90;;;;;;5356006;22;19935;-78
2021/01/11 18:56:18;;;;;;;;;;;-0.90;99.90;;;;;;5036572;28;19912;-80
2021/01/11 18:58:43;;;;;;;;;;;-1.00;99.90;;;;;;5429934;22;19975;-79
2021/01/11 19:01:09;;;;;;;;;;;-1.00;99.90;;;;;;5056630;28;20335;-80
2021/01/11 19:03:34;;;;;;;;;;;-1.00;99.90;;;;;;5056560;28;19940;-79
2021/01/11 19:06:02;;;;;;;;;;;-1.00;99.90;;;;;;5055710;28;20390;-78
2021/01/11 19:08:28;;;;;;;;;;;-1.00;99.90;;;;;;5053550;28;20011;-82
2021/01/11 19:13:35;;;;;;;;;;;-1.10;99.90;;;;;;5374126;22;19924;-86
2021/01/11 19:21:28;;;;;;;;;;;-1.10;99.90;;;;;;5537736;22;19924;-89
2021/01/11 19:26:35;;;;;;;;;;;-1.10;99.90;;;;;;5090180;22;19928;-89
2021/01/11 19:29:01;;;;;;;;;;;-1.10;99.90;;;;;;5454166;23;19924;-89
